Nippon Maru — JNNU — position and weather

sailwx.info

Track history (hours):
 
Tides and Currents Weather Stations Pressure Air Temp Water Temp Dewpoint Dewpoint Depression Visibility Wind Speed Wind Dir Waves Ship Positions

Nippon Maru

Last reported at 2017-Dec-11 17:00 UTC. Time now 2017-Dec-14 15:09 UTC.
Position N 34°33' E 138°57'.

Length 166 m; draft 6.5 m.

Type: Passenger vessel. MMSI: 431302000.

Date/timePositionNaut miles runAvg speedWind from/ knotsBaromVisibWave heightAir tempDewpointWater temp
2017-Dec-11 17:00N 34°33' E 138°57'1312.9
2017-Dec-11 16:00N 34°34' E 138°41'611.6
2017-Dec-11 15:29N 34°37' E 138°35'611.4
2017-Dec-11 15:00N 34°43' E 138°33'612.1
2017-Dec-11 14:30N 34°48' E 138°33'611.7
2017-Dec-11 14:00N 34°54' E 138°35'611.5
2017-Dec-11 13:30N 34°59' E 138°38'5 9.8
2017-Dec-11 13:00N 35°03' E 138°41'1 1.1
2017-Dec-11 12:30N 35°04' E 138°42'0 1.0
2017-Dec-11 12:00N 35°04' E 138°42'1 1.2
2017-Dec-11 11:30N 35°04' E 138°43'0 0.6
2017-Dec-11 11:00N 35°04' E 138°43'0 0.9
2017-Dec-11 10:30N 35°04' E 138°44'1 1.4
2017-Dec-11 10:00N 35°03' E 138°44'1 2.4
2017-Dec-11 09:30N 35°04' E 138°43'1 2.7
2017-Dec-11 09:00N 35°05' E 138°42'1 1.9
2017-Dec-11 08:30N 35°05' E 138°41'1 2.1
2017-Dec-11 08:00N 35°05' E 138°40'1 2.0
2017-Dec-11 07:30N 35°04' E 138°39'1 2.2
2017-Dec-11 07:00N 35°04' E 138°38'713.6
2017-Dec-11 06:30N 34°58' E 138°34'815.8
2017-Dec-11 06:00N 34°51' E 138°31'815.4
2017-Dec-11 05:30N 34°44' E 138°28'815.6
2017-Dec-11 05:00N 34°37' E 138°23'816.2
2017-Dec-11 04:30N 34°32' E 138°15'1016.9
2017-Dec-11 03:53N 34°30' E 138°03'  
2017-Dec-03 21:45N 01°14' E 103°58'416.4
2017-Dec-03 21:30N 01°12' E 103°54'815.9
2017-Dec-03 21:00N 01°09' E 103°47'916.4
2017-Dec-03 20:27N 01°03' E 103°40'  
Track history (hours):
 
Tides and Currents Weather Stations Pressure Air Temp Water Temp Dewpoint Dewpoint Depression Visibility Wind Speed Wind Dir Waves Ship Positions

Nippon Maru

Last reported at 2017-Dec-11 17:00 UTC. Time now 2017-Dec-14 15:09 UTC.
Position N 34°33' E 138°57'.

Length 166 m; draft 6.5 m.

Type: Passenger vessel. MMSI: 431302000.

Date/timePositionNaut miles runAvg speedWind from/ knotsBaromVisibWave heightAir tempDewpointWater temp
2017-Dec-11 17:00N 34°33' E 138°57'1312.9
2017-Dec-11 16:00N 34°34' E 138°41'611.6
2017-Dec-11 15:29N 34°37' E 138°35'611.4
2017-Dec-11 15:00N 34°43' E 138°33'612.1
2017-Dec-11 14:30N 34°48' E 138°33'611.7
2017-Dec-11 14:00N 34°54' E 138°35'611.5
2017-Dec-11 13:30N 34°59' E 138°38'5 9.8
2017-Dec-11 13:00N 35°03' E 138°41'1 1.1
2017-Dec-11 12:30N 35°04' E 138°42'0 1.0
2017-Dec-11 12:00N 35°04' E 138°42'1 1.2
2017-Dec-11 11:30N 35°04' E 138°43'0 0.6
2017-Dec-11 11:00N 35°04' E 138°43'0 0.9
2017-Dec-11 10:30N 35°04' E 138°44'1 1.4
2017-Dec-11 10:00N 35°03' E 138°44'1 2.4
2017-Dec-11 09:30N 35°04' E 138°43'1 2.7
2017-Dec-11 09:00N 35°05' E 138°42'1 1.9
2017-Dec-11 08:30N 35°05' E 138°41'1 2.1
2017-Dec-11 08:00N 35°05' E 138°40'1 2.0
2017-Dec-11 07:30N 35°04' E 138°39'1 2.2
2017-Dec-11 07:00N 35°04' E 138°38'713.6
2017-Dec-11 06:30N 34°58' E 138°34'815.8
2017-Dec-11 06:00N 34°51' E 138°31'815.4
2017-Dec-11 05:30N 34°44' E 138°28'815.6
2017-Dec-11 05:00N 34°37' E 138°23'816.2
2017-Dec-11 04:30N 34°32' E 138°15'1016.9
2017-Dec-11 03:53N 34°30' E 138°03'  
2017-Dec-03 21:45N 01°14' E 103°58'416.4
2017-Dec-03 21:30N 01°12' E 103°54'815.9
2017-Dec-03 21:00N 01°09' E 103°47'916.4
2017-Dec-03 20:27N 01°03' E 103°40'  

Dump ship's entire track history